sensor_id;sensor_type;location;lat;lon;timestamp;P1;durP1;ratioP1;P2;durP2;ratioP2
38399;SDS011;24180;42.676;23.320;2022-08-21T00:02:21;58.43;;;33.93;;
38399;SDS011;24180;42.676;23.320;2022-08-21T00:04:48;63.10;;;34.27;;
38399;SDS011;24180;42.676;23.320;2022-08-21T00:07:15;64.53;;;34.87;;
38399;SDS011;24180;42.676;23.320;2022-08-21T00:09:41;67.17;;;36.67;;
38399;SDS011;24180;42.676;23.320;2022-08-21T00:12:07;62.43;;;35.20;;
38399;SDS011;24180;42.676;23.320;2022-08-21T00:14:34;68.57;;;36.10;;
38399;SDS011;24180;42.676;23.320;2022-08-21T00:17:00;63.37;;;34.60;;
38399;SDS011;24180;42.676;23.320;2022-08-21T00:19:26;54.07;;;30.97;;
38399;SDS011;24180;42.676;23.320;2022-08-21T00:21:54;59.47;;;32.30;;
38399;SDS011;24180;42.676;23.320;2022-08-21T00:24:20;56.20;;;31.03;;
38399;SDS011;24180;42.676;23.320;2022-08-21T00:26:47;54.67;;;30.30;;
38399;SDS011;24180;42.676;23.320;2022-08-21T00:29:14;57.67;;;31.57;;
38399;SDS011;24180;42.676;23.320;2022-08-21T00:31:40;57.60;;;32.23;;
38399;SDS011;24180;42.676;23.320;2022-08-21T00:34:07;60.53;;;32.47;;
38399;SDS011;24180;42.676;23.320;2022-08-21T00:36:34;65.13;;;34.20;;
38399;SDS011;24180;42.676;23.320;2022-08-21T00:39:00;62.03;;;33.20;;
38399;SDS011;24180;42.676;23.320;2022-08-21T00:41:26;62.27;;;32.53;;
38399;SDS011;24180;42.676;23.320;2022-08-21T00:43:53;41.87;;;26.20;;
38399;SDS011;24180;42.676;23.320;2022-08-21T00:46:24;51.00;;;29.83;;
38399;SDS011;24180;42.676;23.320;2022-08-21T00:48:52;48.90;;;27.67;;
38399;SDS011;24180;42.676;23.320;2022-08-21T00:54:22;38.90;;;24.57;;
38399;SDS011;24180;42.676;23.320;2022-08-21T00:56:57;33.20;;;22.83;;
38399;SDS011;24180;42.676;23.320;2022-08-21T00:59:30;37.13;;;24.17;;
38399;SDS011;24180;42.676;23.320;2022-08-21T01:02:00;35.10;;;22.70;;
38399;SDS011;24180;42.676;23.320;2022-08-21T01:04:29;33.63;;;23.63;;
38399;SDS011;24180;42.676;23.320;2022-08-21T01:06:55;45.47;;;24.83;;
38399;SDS011;24180;42.676;23.320;2022-08-21T01:09:24;33.47;;;21.87;;
38399;SDS011;24180;42.676;23.320;2022-08-21T01:11:50;32.67;;;22.23;;
38399;SDS011;24180;42.676;23.320;2022-08-21T01:14:16;31.27;;;21.90;;
38399;SDS011;24180;42.676;23.320;2022-08-21T01:16:53;36.63;;;22.60;;
38399;SDS011;24180;42.676;23.320;2022-08-21T01:19:21;28.07;;;20.47;;
38399;SDS011;24180;42.676;23.320;2022-08-21T01:21:48;28.93;;;20.10;;
38399;SDS011;24180;42.676;23.320;2022-08-21T01:24:17;30.20;;;19.27;;
38399;SDS011;24180;42.676;23.320;2022-08-21T01:26:43;26.90;;;20.40;;
38399;SDS011;24180;42.676;23.320;2022-08-21T01:32:28;22.07;;;17.50;;
38399;SDS011;24180;42.676;23.320;2022-08-21T01:34:53;26.07;;;18.53;;
38399;SDS011;24180;42.676;23.320;2022-08-21T01:37:19;23.20;;;17.50;;
38399;SDS011;24180;42.676;23.320;2022-08-21T01:39:49;23.33;;;17.10;;
38399;SDS011;24180;42.676;23.320;2022-08-21T01:42:15;26.67;;;17.77;;
38399;SDS011;24180;42.676;23.320;2022-08-21T01:44:43;24.87;;;19.00;;
38399;SDS011;24180;42.676;23.320;2022-08-21T01:47:12;21.77;;;17.90;;
38399;SDS011;24180;42.676;23.320;2022-08-21T01:49:41;24.63;;;17.73;;
38399;SDS011;24180;42.676;23.320;2022-08-21T01:52:08;19.67;;;15.70;;
38399;SDS011;24180;42.676;23.320;2022-08-21T01:54:35;24.43;;;16.97;;
38399;SDS011;24180;42.676;23.320;2022-08-21T01:57:01;21.40;;;16.37;;
38399;SDS011;24180;42.676;23.320;2022-08-21T01:59:40;26.40;;;15.93;;
38399;SDS011;24180;42.676;23.320;2022-08-21T02:02:07;23.23;;;17.43;;
38399;SDS011;24180;42.676;23.320;2022-08-21T02:04:34;20.93;;;16.97;;
38399;SDS011;24180;42.676;23.320;2022-08-21T02:07:06;24.90;;;18.17;;
38399;SDS011;24180;42.676;23.320;2022-08-21T02:09:33;22.60;;;16.27;;
38399;SDS011;24180;42.676;23.320;2022-08-21T02:11:59;14.93;;;12.77;;
38399;SDS011;24180;42.676;23.320;2022-08-21T02:14:24;20.57;;;13.63;;
38399;SDS011;24180;42.676;23.320;2022-08-21T02:16:50;24.90;;;16.63;;
38399;SDS011;24180;42.676;23.320;2022-08-21T02:19:19;33.17;;;20.77;;
38399;SDS011;24180;42.676;23.320;2022-08-21T02:21:44;36.80;;;24.00;;
38399;SDS011;24180;42.676;23.320;2022-08-21T02:24:13;44.47;;;27.47;;
38399;SDS011;24180;42.676;23.320;2022-08-21T02:26:40;44.97;;;27.33;;
38399;SDS011;24180;42.676;23.320;2022-08-21T02:29:08;50.03;;;29.93;;
38399;SDS011;24180;42.676;23.320;2022-08-21T02:31:34;54.27;;;31.47;;
38399;SDS011;24180;42.676;23.320;2022-08-21T02:33:59;50.93;;;30.00;;
38399;SDS011;24180;42.676;23.320;2022-08-21T02:36:27;52.70;;;30.93;;
38399;SDS011;24180;42.676;23.320;2022-08-21T02:38:54;60.67;;;33.27;;
38399;SDS011;24180;42.676;23.320;2022-08-21T02:41:21;53.13;;;31.97;;
38399;SDS011;24180;42.676;23.320;2022-08-21T02:43:48;64.43;;;35.53;;
38399;SDS011;24180;42.676;23.320;2022-08-21T02:46:15;52.93;;;33.27;;
38399;SDS011;24180;42.676;23.320;2022-08-21T02:51:29;44.67;;;25.53;;
38399;SDS011;24180;42.676;23.320;2022-08-21T02:53:56;42.20;;;25.87;;
38399;SDS011;24180;42.676;23.320;2022-08-21T02:56:21;47.60;;;25.33;;
38399;SDS011;24180;42.676;23.320;2022-08-21T02:58:48;43.47;;;27.53;;
38399;SDS011;24180;42.676;23.320;2022-08-21T03:01:16;43.50;;;24.93;;
38399;SDS011;24180;42.676;23.320;2022-08-21T03:03:43;35.50;;;22.27;;
38399;SDS011;24180;42.676;23.320;2022-08-21T03:06:11;29.20;;;21.30;;
38399;SDS011;24180;42.676;23.320;2022-08-21T03:08:38;36.07;;;20.53;;
38399;SDS011;24180;42.676;23.320;2022-08-21T03:11:04;37.97;;;21.37;;
38399;SDS011;24180;42.676;23.320;2022-08-21T03:13:30;31.43;;;19.63;;
38399;SDS011;24180;42.676;23.320;2022-08-21T03:15:57;31.30;;;20.43;;
38399;SDS011;24180;42.676;23.320;2022-08-21T03:18:22;31.80;;;21.23;;
38399;SDS011;24180;42.676;23.320;2022-08-21T03:20:57;36.57;;;22.97;;
38399;SDS011;24180;42.676;23.320;2022-08-21T03:23:23;47.57;;;26.60;;
38399;SDS011;24180;42.676;23.320;2022-08-21T03:25:48;46.57;;;25.80;;
38399;SDS011;24180;42.676;23.320;2022-08-21T03:28:17;44.00;;;25.20;;
38399;SDS011;24180;42.676;23.320;2022-08-21T03:30:48;46.67;;;25.87;;
38399;SDS011;24180;42.676;23.320;2022-08-21T03:33:15;50.87;;;27.07;;
38399;SDS011;24180;42.676;23.320;2022-08-21T03:35:45;44.73;;;25.63;;
38399;SDS011;24180;42.676;23.320;2022-08-21T03:38:16;46.27;;;26.90;;
38399;SDS011;24180;42.676;23.320;2022-08-21T03:40:43;48.23;;;28.30;;
38399;SDS011;24180;42.676;23.320;2022-08-21T03:43:10;47.83;;;29.73;;
38399;SDS011;24180;42.676;23.320;2022-08-21T03:45:39;51.90;;;30.67;;
38399;SDS011;24180;42.676;23.320;2022-08-21T03:48:06;50.90;;;30.50;;
38399;SDS011;24180;42.676;23.320;2022-08-21T03:50:33;48.03;;;28.70;;
38399;SDS011;24180;42.676;23.320;2022-08-21T03:53:02;51.97;;;29.60;;
38399;SDS011;24180;42.676;23.320;2022-08-21T03:55:28;50.63;;;30.67;;
38399;SDS011;24180;42.676;23.320;2022-08-21T03:57:54;52.57;;;29.40;;
38399;SDS011;24180;42.676;23.320;2022-08-21T04:00:22;45.40;;;27.20;;
38399;SDS011;24180;42.676;23.320;2022-08-21T04:02:48;43.30;;;25.97;;
38399;SDS011;24180;42.676;23.320;2022-08-21T04:05:14;40.93;;;25.53;;
38399;SDS011;24180;42.676;23.320;2022-08-21T04:07:52;35.90;;;24.43;;
38399;SDS011;24180;42.676;23.320;2022-08-21T04:10:19;39.63;;;24.53;;
38399;SDS011;24180;42.676;23.320;2022-08-21T04:12:44;33.50;;;22.00;;
38399;SDS011;24180;42.676;23.320;2022-08-21T04:15:26;31.27;;;20.67;;
38399;SDS011;24180;42.676;23.320;2022-08-21T04:18:01;30.60;;;18.83;;
38399;SDS011;24180;42.676;23.320;2022-08-21T04:20:39;30.80;;;20.00;;
38399;SDS011;24180;42.676;23.320;2022-08-21T04:23:09;33.27;;;19.47;;
38399;SDS011;24180;42.676;23.320;2022-08-21T04:25:47;28.30;;;18.90;;
38399;SDS011;24180;42.676;23.320;2022-08-21T04:28:15;27.60;;;19.70;;
38399;SDS011;24180;42.676;23.320;2022-08-21T04:34:03;27.90;;;18.63;;
38399;SDS011;24180;42.676;23.320;2022-08-21T04:36:30;25.30;;;17.40;;
38399;SDS011;24180;42.676;23.320;2022-08-21T04:38:58;25.27;;;17.83;;
38399;SDS011;24180;42.676;23.320;2022-08-21T04:41:24;24.07;;;17.90;;
38399;SDS011;24180;42.676;23.320;2022-08-21T04:43:50;23.83;;;16.93;;
38399;SDS011;24180;42.676;23.320;2022-08-21T04:46:19;19.90;;;15.03;;
38399;SDS011;24180;42.676;23.320;2022-08-21T04:48:44;18.87;;;14.23;;
38399;SDS011;24180;42.676;23.320;2022-08-21T04:51:13;17.43;;;14.33;;
38399;SDS011;24180;42.676;23.320;2022-08-21T04:54:01;18.73;;;15.10;;
38399;SDS011;24180;42.676;23.320;2022-08-21T04:56:53;17.13;;;13.93;;
38399;SDS011;24180;42.676;23.320;2022-08-21T04:59:31;16.00;;;14.20;;
38399;SDS011;24180;42.676;23.320;2022-08-21T05:02:07;15.60;;;13.23;;
38399;SDS011;24180;42.676;23.320;2022-08-21T05:04:42;16.03;;;14.03;;
38399;SDS011;24180;42.676;23.320;2022-08-21T05:07:15;17.93;;;16.00;;
38399;SDS011;24180;42.676;23.320;2022-08-21T05:09:54;18.37;;;14.20;;
38399;SDS011;24180;42.676;23.320;2022-08-21T05:12:23;17.53;;;14.10;;
38399;SDS011;24180;42.676;23.320;2022-08-21T05:14:54;18.50;;;15.73;;
38399;SDS011;24180;42.676;23.320;2022-08-21T05:17:35;20.37;;;13.87;;
38399;SDS011;24180;42.676;23.320;2022-08-21T05:23:28;15.70;;;14.20;;
38399;SDS011;24180;42.676;23.320;2022-08-21T05:28:44;16.13;;;12.20;;
38399;SDS011;24180;42.676;23.320;2022-08-21T05:31:10;17.00;;;15.23;;
38399;SDS011;24180;42.676;23.320;2022-08-21T05:36:48;19.80;;;18.10;;
38399;SDS011;24180;42.676;23.320;2022-08-21T05:42:17;13.27;;;11.97;;
38399;SDS011;24180;42.676;23.320;2022-08-21T05:44:46;15.20;;;12.57;;
38399;SDS011;24180;42.676;23.320;2022-08-21T05:47:13;13.00;;;11.13;;
38399;SDS011;24180;42.676;23.320;2022-08-21T05:49:41;13.50;;;12.20;;
38399;SDS011;24180;42.676;23.320;2022-08-21T05:52:07;13.43;;;12.00;;
38399;SDS011;24180;42.676;23.320;2022-08-21T05:57:24;16.00;;;11.70;;
38399;SDS011;24180;42.676;23.320;2022-08-21T05:59:50;14.30;;;11.70;;
38399;SDS011;24180;42.676;23.320;2022-08-21T06:02:20;15.77;;;11.67;;
38399;SDS011;24180;42.676;23.320;2022-08-21T06:04:47;13.37;;;12.00;;
38399;SDS011;24180;42.676;23.320;2022-08-21T06:07:22;15.60;;;10.80;;
38399;SDS011;24180;42.676;23.320;2022-08-21T06:09:49;12.70;;;10.90;;
38399;SDS011;24180;42.676;23.320;2022-08-21T06:12:16;13.10;;;11.77;;
38399;SDS011;24180;42.676;23.320;2022-08-21T06:14:42;17.00;;;12.30;;
38399;SDS011;24180;42.676;23.320;2022-08-21T06:17:09;13.57;;;11.80;;
38399;SDS011;24180;42.676;23.320;2022-08-21T06:19:37;15.20;;;12.00;;
38399;SDS011;24180;42.676;23.320;2022-08-21T06:22:04;11.67;;;10.63;;
38399;SDS011;24180;42.676;23.320;2022-08-21T06:24:30;10.47;;;9.47;;
38399;SDS011;24180;42.676;23.320;2022-08-21T06:27:16;12.33;;;10.87;;
38399;SDS011;24180;42.676;23.320;2022-08-21T06:29:42;11.17;;;10.07;;
38399;SDS011;24180;42.676;23.320;2022-08-21T06:32:10;12.87;;;11.23;;
38399;SDS011;24180;42.676;23.320;2022-08-21T06:34:37;11.27;;;10.17;;
38399;SDS011;24180;42.676;23.320;2022-08-21T06:37:04;12.70;;;10.70;;
38399;SDS011;24180;42.676;23.320;2022-08-21T06:39:30;11.47;;;10.40;;
38399;SDS011;24180;42.676;23.320;2022-08-21T06:41:57;13.00;;;11.20;;
38399;SDS011;24180;42.676;23.320;2022-08-21T06:44:26;15.77;;;13.43;;
38399;SDS011;24180;42.676;23.320;2022-08-21T06:46:58;16.77;;;12.73;;
38399;SDS011;24180;42.676;23.320;2022-08-21T06:49:24;13.63;;;12.00;;
38399;SDS011;24180;42.676;23.320;2022-08-21T06:51:49;17.17;;;15.37;;
38399;SDS011;24180;42.676;23.320;2022-08-21T06:54:15;15.47;;;12.77;;
38399;SDS011;24180;42.676;23.320;2022-08-21T06:56:41;15.67;;;13.27;;
38399;SDS011;24180;42.676;23.320;2022-08-21T06:59:11;15.60;;;13.67;;
38399;SDS011;24180;42.676;23.320;2022-08-21T07:01:37;17.73;;;14.57;;
38399;SDS011;24180;42.676;23.320;2022-08-21T07:04:04;19.27;;;13.97;;
38399;SDS011;24180;42.676;23.320;2022-08-21T07:06:31;15.20;;;13.70;;
38399;SDS011;24180;42.676;23.320;2022-08-21T07:09:02;15.80;;;14.20;;
38399;SDS011;24180;42.676;23.320;2022-08-21T07:11:28;13.60;;;12.30;;
38399;SDS011;24180;42.676;23.320;2022-08-21T07:13:55;14.20;;;12.70;;
38399;SDS011;24180;42.676;23.320;2022-08-21T07:16:40;14.33;;;12.90;;
38399;SDS011;24180;42.676;23.320;2022-08-21T07:19:14;14.30;;;12.67;;
38399;SDS011;24180;42.676;23.320;2022-08-21T07:21:41;17.27;;;13.93;;
38399;SDS011;24180;42.676;23.320;2022-08-21T07:24:07;13.57;;;12.23;;
38399;SDS011;24180;42.676;23.320;2022-08-21T07:26:34;14.52;;;12.20;;
38399;SDS011;24180;42.676;23.320;2022-08-21T07:29:00;14.38;;;12.98;;
38399;SDS011;24180;42.676;23.320;2022-08-21T07:31:29;16.55;;;12.98;;
38399;SDS011;24180;42.676;23.320;2022-08-21T07:33:54;14.20;;;12.17;;
38399;SDS011;24180;42.676;23.320;2022-08-21T07:36:20;13.90;;;11.67;;
38399;SDS011;24180;42.676;23.320;2022-08-21T07:38:47;12.00;;;10.80;;
38399;SDS011;24180;42.676;23.320;2022-08-21T07:41:18;13.53;;;11.60;;
38399;SDS011;24180;42.676;23.320;2022-08-21T07:43:47;12.85;;;11.55;;
38399;SDS011;24180;42.676;23.320;2022-08-21T07:46:13;12.93;;;11.60;;
38399;SDS011;24180;42.676;23.320;2022-08-21T07:48:44;12.75;;;11.02;;
38399;SDS011;24180;42.676;23.320;2022-08-21T07:51:11;17.35;;;15.75;;
38399;SDS011;24180;42.676;23.320;2022-08-21T07:53:41;14.85;;;11.88;;
38399;SDS011;24180;42.676;23.320;2022-08-21T07:56:07;12.27;;;11.07;;
38399;SDS011;24180;42.676;23.320;2022-08-21T07:58:34;13.10;;;11.75;;
38399;SDS011;24180;42.676;23.320;2022-08-21T08:01:00;16.15;;;12.23;;
38399;SDS011;24180;42.676;23.320;2022-08-21T08:03:30;14.60;;;12.55;;
38399;SDS011;24180;42.676;23.320;2022-08-21T08:05:57;13.05;;;11.55;;
38399;SDS011;24180;42.676;23.320;2022-08-21T08:08:26;13.85;;;12.57;;
38399;SDS011;24180;42.676;23.320;2022-08-21T08:10:52;15.45;;;12.85;;
38399;SDS011;24180;42.676;23.320;2022-08-21T08:13:19;11.75;;;10.35;;
38399;SDS011;24180;42.676;23.320;2022-08-21T08:19:06;13.10;;;11.02;;
38399;SDS011;24180;42.676;23.320;2022-08-21T08:21:41;14.45;;;11.48;;
38399;SDS011;24180;42.676;23.320;2022-08-21T08:24:07;15.73;;;11.98;;
38399;SDS011;24180;42.676;23.320;2022-08-21T08:26:35;12.40;;;11.10;;
38399;SDS011;24180;42.676;23.320;2022-08-21T08:29:02;13.20;;;11.43;;
38399;SDS011;24180;42.676;23.320;2022-08-21T08:31:31;15.32;;;13.20;;
38399;SDS011;24180;42.676;23.320;2022-08-21T08:33:59;13.82;;;12.23;;
38399;SDS011;24180;42.676;23.320;2022-08-21T08:36:31;15.20;;;12.15;;
38399;SDS011;24180;42.676;23.320;2022-08-21T08:39:00;13.50;;;12.02;;
38399;SDS011;24180;42.676;23.320;2022-08-21T08:41:26;17.20;;;13.48;;
38399;SDS011;24180;42.676;23.320;2022-08-21T08:43:59;14.85;;;12.73;;
38399;SDS011;24180;42.676;23.320;2022-08-21T08:46:41;20.02;;;12.50;;
38399;SDS011;24180;42.676;23.320;2022-08-21T08:52:22;13.02;;;11.73;;
38399;SDS011;24180;42.676;23.320;2022-08-21T08:57:46;13.50;;;11.07;;
38399;SDS011;24180;42.676;23.320;2022-08-21T09:00:15;12.65;;;10.13;;
38399;SDS011;24180;42.676;23.320;2022-08-21T09:02:48;14.25;;;10.75;;
38399;SDS011;24180;42.676;23.320;2022-08-21T09:14:00;13.55;;;11.10;;
38399;SDS011;24180;42.676;23.320;2022-08-21T09:28:44;13.27;;;10.85;;
38399;SDS011;24180;42.676;23.320;2022-08-21T09:34:07;11.13;;;8.80;;
38399;SDS011;24180;42.676;23.320;2022-08-21T09:39:37;8.90;;;8.10;;
38399;SDS011;24180;42.676;23.320;2022-08-21T09:42:20;15.27;;;11.98;;
38399;SDS011;24180;42.676;23.320;2022-08-21T09:45:00;10.50;;;8.35;;
38399;SDS011;24180;42.676;23.320;2022-08-21T09:50:49;110.07;;;73.10;;
38399;SDS011;24180;42.676;23.320;2022-08-21T09:53:24;11.88;;;9.93;;
38399;SDS011;24180;42.676;23.320;2022-08-21T09:55:53;14.07;;;12.63;;
38399;SDS011;24180;42.676;23.320;2022-08-21T09:58:56;26.70;;;18.33;;
38399;SDS011;24180;42.676;23.320;2022-08-21T10:01:23;10.48;;;8.43;;
38399;SDS011;24180;42.676;23.320;2022-08-21T10:04:03;10.77;;;7.43;;
38399;SDS011;24180;42.676;23.320;2022-08-21T10:06:32;10.75;;;8.00;;
38399;SDS011;24180;42.676;23.320;2022-08-21T10:20:54;9.15;;;7.38;;
38399;SDS011;24180;42.676;23.320;2022-08-21T10:29:44;9.10;;;8.30;;
38399;SDS011;24180;42.676;23.320;2022-08-21T10:38:49;9.48;;;7.78;;
38399;SDS011;24180;42.676;23.320;2022-08-21T10:44:46;11.35;;;7.07;;
38399;SDS011;24180;42.676;23.320;2022-08-21T10:47:25;9.52;;;8.63;;
38399;SDS011;24180;42.676;23.320;2022-08-21T10:50:13;13.43;;;12.20;;
38399;SDS011;24180;42.676;23.320;2022-08-21T10:56:18;7.72;;;6.85;;
38399;SDS011;24180;42.676;23.320;2022-08-21T11:01:48;9.32;;;8.52;;
38399;SDS011;24180;42.676;23.320;2022-08-21T11:07:36;10.10;;;9.10;;
38399;SDS011;24180;42.676;23.320;2022-08-21T11:10:25;12.07;;;7.65;;
38399;SDS011;24180;42.676;23.320;2022-08-21T11:13:01;9.00;;;8.15;;
38399;SDS011;24180;42.676;23.320;2022-08-21T11:15:52;11.05;;;9.13;;
38399;SDS011;24180;42.676;23.320;2022-08-21T11:18:50;9.15;;;8.45;;
38399;SDS011;24180;42.676;23.320;2022-08-21T11:21:30;7.78;;;6.97;;
38399;SDS011;24180;42.676;23.320;2022-08-21T11:24:26;9.75;;;7.53;;
38399;SDS011;24180;42.676;23.320;2022-08-21T11:27:06;8.77;;;6.50;;
38399;SDS011;24180;42.676;23.320;2022-08-21T11:29:47;7.47;;;6.53;;
38399;SDS011;24180;42.676;23.320;2022-08-21T11:38:21;7.85;;;6.97;;
38399;SDS011;24180;42.676;23.320;2022-08-21T11:43:56;6.43;;;5.78;;
38399;SDS011;24180;42.676;23.320;2022-08-21T11:46:49;7.88;;;6.63;;
38399;SDS011;24180;42.676;23.320;2022-08-21T11:55:23;7.32;;;6.60;;
38399;SDS011;24180;42.676;23.320;2022-08-21T12:01:12;8.63;;;7.90;;
38399;SDS011;24180;42.676;23.320;2022-08-21T12:03:58;11.38;;;10.15;;
38399;SDS011;24180;42.676;23.320;2022-08-21T12:06:30;8.93;;;7.13;;
38399;SDS011;24180;42.676;23.320;2022-08-21T12:09:02;13.73;;;12.10;;
38399;SDS011;24180;42.676;23.320;2022-08-21T12:11:45;9.02;;;6.60;;
38399;SDS011;24180;42.676;23.320;2022-08-21T12:14:15;8.00;;;7.13;;
38399;SDS011;24180;42.676;23.320;2022-08-21T12:16:45;10.02;;;7.00;;
38399;SDS011;24180;42.676;23.320;2022-08-21T12:19:29;8.27;;;7.47;;
38399;SDS011;24180;42.676;23.320;2022-08-21T12:22:13;9.50;;;8.70;;
38399;SDS011;24180;42.676;23.320;2022-08-21T12:24:44;12.35;;;11.27;;
38399;SDS011;24180;42.676;23.320;2022-08-21T12:29:48;8.15;;;7.28;;
38399;SDS011;24180;42.676;23.320;2022-08-21T12:34:53;6.93;;;6.32;;
38399;SDS011;24180;42.676;23.320;2022-08-21T12:40:12;6.80;;;6.20;;
38399;SDS011;24180;42.676;23.320;2022-08-21T12:42:46;8.63;;;6.65;;
38399;SDS011;24180;42.676;23.320;2022-08-21T12:45:20;11.07;;;6.90;;
38399;SDS011;24180;42.676;23.320;2022-08-21T12:47:58;11.45;;;7.50;;
38399;SDS011;24180;42.676;23.320;2022-08-21T12:56:15;7.88;;;6.68;;
38399;SDS011;24180;42.676;23.320;2022-08-21T12:58:49;8.27;;;7.47;;
38399;SDS011;24180;42.676;23.320;2022-08-21T13:01:19;8.73;;;7.93;;
38399;SDS011;24180;42.676;23.320;2022-08-21T13:03:56;9.25;;;7.97;;
38399;SDS011;24180;42.676;23.320;2022-08-21T13:06:25;10.80;;;8.30;;
38399;SDS011;24180;42.676;23.320;2022-08-21T13:08:58;12.63;;;11.63;;
38399;SDS011;24180;42.676;23.320;2022-08-21T13:11:31;14.30;;;12.23;;
38399;SDS011;24180;42.676;23.320;2022-08-21T13:13:58;13.65;;;12.35;;
38399;SDS011;24180;42.676;23.320;2022-08-21T13:16:29;8.43;;;7.60;;
38399;SDS011;24180;42.676;23.320;2022-08-21T13:19:00;9.55;;;7.13;;
38399;SDS011;24180;42.676;23.320;2022-08-21T13:21:31;8.25;;;7.38;;
38399;SDS011;24180;42.676;23.320;2022-08-21T13:26:51;8.20;;;6.72;;
38399;SDS011;24180;42.676;23.320;2022-08-21T13:29:19;8.95;;;6.80;;
38399;SDS011;24180;42.676;23.320;2022-08-21T13:31:49;9.13;;;6.88;;
38399;SDS011;24180;42.676;23.320;2022-08-21T13:34:19;11.32;;;8.85;;
38399;SDS011;24180;42.676;23.320;2022-08-21T13:36:47;9.38;;;8.57;;
38399;SDS011;24180;42.676;23.320;2022-08-21T13:39:19;10.57;;;8.40;;
38399;SDS011;24180;42.676;23.320;2022-08-21T13:41:46;10.75;;;9.93;;
38399;SDS011;24180;42.676;23.320;2022-08-21T13:44:16;10.82;;;7.47;;
38399;SDS011;24180;42.676;23.320;2022-08-21T13:46:45;11.52;;;10.52;;
38399;SDS011;24180;42.676;23.320;2022-08-21T13:49:13;11.35;;;10.18;;
38399;SDS011;24180;42.676;23.320;2022-08-21T13:51:44;19.92;;;18.70;;
38399;SDS011;24180;42.676;23.320;2022-08-21T13:54:18;10.98;;;10.10;;
38399;SDS011;24180;42.676;23.320;2022-08-21T13:56:47;9.40;;;6.72;;
38399;SDS011;24180;42.676;23.320;2022-08-21T14:02:15;7.18;;;6.57;;
38399;SDS011;24180;42.676;23.320;2022-08-21T14:05:00;11.52;;;7.15;;
38399;SDS011;24180;42.676;23.320;2022-08-21T14:07:37;7.05;;;6.35;;
38399;SDS011;24180;42.676;23.320;2022-08-21T14:10:06;8.93;;;6.60;;
38399;SDS011;24180;42.676;23.320;2022-08-21T14:12:45;7.53;;;6.75;;
38399;SDS011;24180;42.676;23.320;2022-08-21T14:15:13;7.60;;;6.40;;
38399;SDS011;24180;42.676;23.320;2022-08-21T14:17:44;9.90;;;8.75;;
38399;SDS011;24180;42.676;23.320;2022-08-21T14:20:11;6.93;;;6.32;;
38399;SDS011;24180;42.676;23.320;2022-08-21T14:22:50;9.27;;;6.93;;
38399;SDS011;24180;42.676;23.320;2022-08-21T14:30:39;7.78;;;7.07;;
38399;SDS011;24180;42.676;23.320;2022-08-21T14:33:11;12.07;;;10.98;;
38399;SDS011;24180;42.676;23.320;2022-08-21T14:35:43;11.05;;;9.27;;
38399;SDS011;24180;42.676;23.320;2022-08-21T14:38:18;8.73;;;6.88;;
38399;SDS011;24180;42.676;23.320;2022-08-21T14:40:56;10.70;;;9.70;;
38399;SDS011;24180;42.676;23.320;2022-08-21T14:43:29;10.50;;;8.75;;
38399;SDS011;24180;42.676;23.320;2022-08-21T14:45:56;8.85;;;8.00;;
38399;SDS011;24180;42.676;23.320;2022-08-21T14:48:23;12.15;;;10.20;;
38399;SDS011;24180;42.676;23.320;2022-08-21T14:50:54;12.05;;;9.57;;
38399;SDS011;24180;42.676;23.320;2022-08-21T14:53:20;11.63;;;8.90;;
38399;SDS011;24180;42.676;23.320;2022-08-21T14:55:45;11.98;;;7.93;;
38399;SDS011;24180;42.676;23.320;2022-08-21T14:58:29;9.18;;;7.53;;
38399;SDS011;24180;42.676;23.320;2022-08-21T15:00:55;10.13;;;8.25;;
38399;SDS011;24180;42.676;23.320;2022-08-21T15:03:23;8.88;;;8.02;;
38399;SDS011;24180;42.676;23.320;2022-08-21T15:05:52;10.68;;;9.00;;
38399;SDS011;24180;42.676;23.320;2022-08-21T15:08:17;10.13;;;7.68;;
38399;SDS011;24180;42.676;23.320;2022-08-21T15:10:43;11.43;;;8.88;;
38399;SDS011;24180;42.676;23.320;2022-08-21T15:13:11;13.00;;;9.15;;
38399;SDS011;24180;42.676;23.320;2022-08-21T15:15:40;10.93;;;10.07;;
38399;SDS011;24180;42.676;23.320;2022-08-21T15:18:07;11.32;;;8.77;;
38399;SDS011;24180;42.676;23.320;2022-08-21T15:20:33;9.90;;;7.32;;
38399;SDS011;24180;42.676;23.320;2022-08-21T15:22:59;9.93;;;8.07;;
38399;SDS011;24180;42.676;23.320;2022-08-21T15:25:25;10.90;;;8.45;;
38399;SDS011;24180;42.676;23.320;2022-08-21T15:27:50;8.52;;;7.70;;
38399;SDS011;24180;42.676;23.320;2022-08-21T15:30:16;11.73;;;10.50;;
38399;SDS011;24180;42.676;23.320;2022-08-21T15:32:42;19.58;;;18.05;;
38399;SDS011;24180;42.676;23.320;2022-08-21T15:35:08;14.02;;;12.75;;
38399;SDS011;24180;42.676;23.320;2022-08-21T15:37:34;16.67;;;15.38;;
38399;SDS011;24180;42.676;23.320;2022-08-21T15:40:00;8.95;;;8.05;;
38399;SDS011;24180;42.676;23.320;2022-08-21T15:42:25;10.88;;;9.90;;
38399;SDS011;24180;42.676;23.320;2022-08-21T15:44:52;11.10;;;7.60;;
38399;SDS011;24180;42.676;23.320;2022-08-21T15:47:25;10.57;;;9.65;;
38399;SDS011;24180;42.676;23.320;2022-08-21T15:49:53;11.05;;;8.07;;
38399;SDS011;24180;42.676;23.320;2022-08-21T15:52:20;8.27;;;7.55;;
38399;SDS011;24180;42.676;23.320;2022-08-21T15:54:46;10.23;;;9.27;;
38399;SDS011;24180;42.676;23.320;2022-08-21T15:57:14;14.43;;;9.57;;
38399;SDS011;24180;42.676;23.320;2022-08-21T15:59:53;9.43;;;8.52;;
38399;SDS011;24180;42.676;23.320;2022-08-21T16:04:49;9.93;;;8.48;;
38399;SDS011;24180;42.676;23.320;2022-08-21T16:07:15;10.07;;;8.13;;
38399;SDS011;24180;42.676;23.320;2022-08-21T16:09:56;15.32;;;14.13;;
38399;SDS011;24180;42.676;23.320;2022-08-21T16:12:30;15.15;;;14.05;;
38399;SDS011;24180;42.676;23.320;2022-08-21T16:18:23;13.13;;;12.02;;
38399;SDS011;24180;42.676;23.320;2022-08-21T16:20:50;9.55;;;8.38;;
38399;SDS011;24180;42.676;23.320;2022-08-21T16:23:16;11.52;;;9.15;;
38399;SDS011;24180;42.676;23.320;2022-08-21T16:25:42;12.10;;;9.10;;
38399;SDS011;24180;42.676;23.320;2022-08-21T16:28:08;9.73;;;8.80;;
38399;SDS011;24180;42.676;23.320;2022-08-21T16:30:38;8.25;;;7.45;;
38399;SDS011;24180;42.676;23.320;2022-08-21T16:33:04;12.70;;;11.63;;
38399;SDS011;24180;42.676;23.320;2022-08-21T16:35:30;10.10;;;8.95;;
38399;SDS011;24180;42.676;23.320;2022-08-21T16:37:56;8.85;;;7.95;;
38399;SDS011;24180;42.676;23.320;2022-08-21T16:40:34;8.20;;;7.43;;
38399;SDS011;24180;42.676;23.320;2022-08-21T16:43:05;17.10;;;15.57;;
38399;SDS011;24180;42.676;23.320;2022-08-21T16:45:32;10.68;;;9.57;;
38399;SDS011;24180;42.676;23.320;2022-08-21T16:50:50;11.45;;;10.25;;
38399;SDS011;24180;42.676;23.320;2022-08-21T16:53:21;9.50;;;8.70;;
38399;SDS011;24180;42.676;23.320;2022-08-21T16:55:46;11.05;;;8.65;;
38399;SDS011;24180;42.676;23.320;2022-08-21T16:58:25;11.40;;;9.63;;
38399;SDS011;24180;42.676;23.320;2022-08-21T17:04:02;11.05;;;9.25;;
38399;SDS011;24180;42.676;23.320;2022-08-21T17:10:01;14.45;;;13.25;;
38399;SDS011;24180;42.676;23.320;2022-08-21T17:15:48;11.68;;;10.57;;
38399;SDS011;24180;42.676;23.320;2022-08-21T17:18:30;11.38;;;10.40;;
38399;SDS011;24180;42.676;23.320;2022-08-21T17:20:55;13.63;;;12.35;;